Time,TemperatureF,DewpointF,PressureIn,WindDirection,WindDirectionDegrees,WindSpeedMPH,WindSpeedGustMPH,Humidity,HourlyPrecipIn,Conditions,Clouds,dailyrainin,SoftwareType,DateUTC
2013-05-30 06:35:00,65.7,-7.1,29.59,SW,230,0.0,0.0,5,0.00,,---,0.00,VWS V14.01,2013-05-30 13:35:00,
2013-05-30 06:36:00,65.7,-7.1,29.59,SW,230,0.0,0.0,5,0.00,,---,0.00,VWS V14.01,2013-05-30 13:36:00,
2013-05-30 06:37:00,65.7,-7.1,29.59,SW,230,0.0,0.0,5,0.00,,---,0.00,VWS V14.01,2013-05-30 13:37:00,
2013-05-30 06:42:00,65.7,-7.1,29.71,WSW,238,0.0,0.0,5,0.00,,---,0.00,VWS V14.01,2013-05-30 13:42:00,
2013-05-30 06:47:00,66.7,-6.3,29.71,WSW,238,0.0,0.0,5,0.00,,---,0.00,VWS V14.01,2013-05-30 13:47:00,
2013-05-30 06:52:00,66.7,-6.3,29.71,WSW,238,0.0,0.0,5,0.00,,---,0.00,VWS V14.01,2013-05-30 13:52:00,
2013-05-30 06:57:00,67.6,-5.7,29.71,WSW,252,0.0,0.0,5,0.00,,---,0.00,VWS V14.01,2013-05-30 13:57:00,
2013-05-30 07:02:00,67.6,-5.7,29.71,WSW,253,0.0,0.0,5,0.00,,---,0.00,VWS V14.01,2013-05-30 14:02:00,
2013-05-30 07:07:00,68.2,-5.3,29.71,West,262,0.0,0.0,5,0.00,,---,0.00,VWS V14.01,2013-05-30 14:07:00,
2013-05-30 07:12:00,68.2,-5.3,29.71,West,265,0.0,0.0,5,0.00,,---,0.00,VWS V14.01,2013-05-30 14:12:00,
2013-05-30 07:19:00,68.5,-5.1,29.71,West,265,0.0,0.0,5,0.00,,---,0.00,VWS V14.01,2013-05-30 14:19:00,
2013-05-30 07:24:00,69.4,-4.4,29.71,West,268,0.0,0.0,5,0.00,,---,0.00,VWS V14.01,2013-05-30 14:24:00,
2013-05-30 07:29:00,69.4,-4.4,29.71,West,269,0.0,0.0,5,0.00,,---,0.00,VWS V14.01,2013-05-30 14:29:00,
2013-05-30 07:34:00,70.5,-8.3,29.71,West,272,0.0,0.0,4,0.00,,---,0.00,VWS V14.01,2013-05-30 14:34:00,
2013-05-30 07:39:00,71.1,-7.9,29.74,West,272,0.0,0.0,4,0.00,,---,0.00,VWS V14.01,2013-05-30 14:39:00,
2013-05-30 07:44:00,71.4,-7.6,29.74,West,272,0.0,0.0,4,0.00,,---,0.00,VWS V14.01,2013-05-30 14:44:00,
2013-05-30 07:49:00,71.6,-7.5,29.74,North,1,0.0,0.0,4,0.00,,---,0.00,VWS V14.01,2013-05-30 14:49:00,
2013-05-30 10:35:00,71.8,-7.4,29.74,North,1,0.0,0.0,4,0.00,,---,0.00,VWS V14.01,2013-05-30 17:35:00,
2013-05-30 10:40:00,83.7,-13.4,29.74,NNE,18,4.9,4.9,2,0.00,,---,0.00,VWS V14.01,2013-05-30 17:40:00,
2013-05-30 10:45:00,83.7,-13.4,29.74,ESE,111,4.9,4.9,2,0.00,,---,0.00,VWS V14.01,2013-05-30 17:45:00,
2013-05-30 10:50:00,86.7,-11.5,29.74,ESE,111,4.9,4.9,2,0.00,,---,0.00,VWS V14.01,2013-05-30 17:50:00,
2013-05-30 10:55:00,86.7,-11.5,29.74,East,92,3.6,3.6,2,0.00,,---,0.00,VWS V14.01,2013-05-30 17:55:00,
2013-05-30 11:00:00,86.4,-11.7,29.74,ESE,121,4.9,4.9,2,0.00,,---,0.00,VWS V14.01,2013-05-30 18:00:00,
2013-05-30 11:06:00,86.4,-11.7,29.74,SSE,157,3.6,3.6,2,0.00,,---,0.00,VWS V14.01,2013-05-30 18:06:00,
2013-05-30 11:11:00,86.4,-11.7,29.71,ESE,108,3.6,3.6,2,0.00,,---,0.00,VWS V14.01,2013-05-30 18:11:00,
2013-05-30 13:56:00,86.4,-11.7,29.71,ESE,108,3.6,3.6,2,0.00,,---,0.00,VWS V14.01,2013-05-30 20:56:00,
2013-05-30 14:01:00,89.6,-9.6,29.68,SE,132,0.0,0.0,2,0.00,,---,0.00,VWS V14.01,2013-05-30 21:01:00,
2013-05-30 14:06:00,89.8,-9.5,29.68,ESE,111,0.0,0.0,2,0.00,,---,0.00,VWS V14.01,2013-05-30 21:06:00,
2013-05-30 14:11:00,90.0,-9.4,29.68,South,183,0.0,0.0,2,0.00,,---,0.00,VWS V14.01,2013-05-30 21:11:00,
2013-05-30 14:16:00,90.1,-9.3,29.68,South,183,0.0,0.0,2,0.00,,---,0.00,VWS V14.01,2013-05-30 21:16:00,
2013-05-30 14:21:00,89.8,-9.5,29.68,North,3,0.0,0.0,2,0.00,,---,0.00,VWS V14.01,2013-05-30 21:21:00,
2013-05-30 14:26:00,90.1,-9.3,29.68,SE,142,0.0,0.0,2,0.00,,---,0.00,VWS V14.01,2013-05-30 21:26:00,
2013-05-30 14:31:00,90.1,-9.3,29.68,North,5,0.0,0.0,2,0.00,,---,0.00,VWS V14.01,2013-05-30 21:31:00,
2013-05-30 14:36:00,90.3,-9.2,29.68,SE,145,0.0,0.0,2,0.00,,---,0.00,VWS V14.01,2013-05-30 21:36:00,
2013-05-30 14:41:00,90.3,-9.2,29.68,SE,127,0.0,0.0,2,0.00,,---,0.00,VWS V14.01,2013-05-30 21:41:00,
2013-05-30 14:46:00,90.5,-9.1,29.68,South,177,0.0,0.0,2,0.00,,---,0.00,VWS V14.01,2013-05-30 21:46:00,
2013-05-30 14:51:00,90.3,-9.2,29.68,South,177,0.0,0.0,2,0.00,,---,0.00,VWS V14.01,2013-05-30 21:51:00,
2013-05-30 14:56:00,90.3,-9.2,29.68,North,2,0.0,0.0,2,0.00,,---,0.00,VWS V14.01,2013-05-30 21:56:00,
2013-05-30 15:01:00,90.1,-9.3,29.68,SE,138,0.0,0.0,2,0.00,,---,0.00,VWS V14.01,2013-05-30 22:01:00,
2013-05-30 16:11:00,90.1,-9.3,29.68,SE,138,0.0,0.0,2,0.00,,---,0.00,VWS V14.01,2013-05-30 23:11:00,
2013-05-30 16:16:00,89.8,-9.5,29.65,SSW,209,0.0,0.0,2,0.00,,---,0.00,VWS V14.01,2013-05-30 23:16:00,
2013-05-30 16:22:00,90.0,-9.4,29.65,North,8,0.0,0.0,2,0.00,,---,0.00,VWS V14.01,2013-05-30 23:22:00,
2013-05-30 16:27:00,90.0,-9.4,29.65,North,8,0.0,0.0,2,0.00,,---,0.00,VWS V14.01,2013-05-30 23:27:00,
2013-05-30 16:32:00,90.0,-9.4,29.65,SSW,209,0.0,0.0,2,0.00,,---,0.00,VWS V14.01,2013-05-30 23:32:00,
2013-05-30 16:37:00,90.0,-9.4,29.65,South,170,0.0,0.0,2,0.00,,---,0.00,VWS V14.01,2013-05-30 23:37:00,
2013-05-30 16:42:00,90.0,-9.4,29.65,West,260,0.0,0.0,2,0.00,,---,0.00,VWS V14.01,2013-05-30 23:42:00,
2013-05-30 16:47:00,90.0,-9.4,29.65,SW,218,0.0,0.0,2,0.00,,---,0.00,VWS V14.01,2013-05-30 23:47:00,
2013-05-30 16:52:00,90.0,-9.4,29.65,SW,216,0.0,0.0,2,0.00,,---,0.00,VWS V14.01,2013-05-30 23:52:00,
2013-05-30 16:57:00,90.0,-9.4,29.65,SSW,204,0.0,0.0,2,0.00,,---,0.00,VWS V14.01,2013-05-30 23:57:00,
2013-05-30 17:02:00,89.2,-9.9,29.65,SW,227,0.0,0.0,2,0.00,,---,0.00,VWS V14.01,2013-05-31 00:02:00,
2013-05-30 17:07:00,89.1,-10.0,29.65,WSW,257,0.0,0.0,2,0.00,,---,0.00,VWS V14.01,2013-05-31 00:07:00,
2013-05-30 17:12:00,89.1,-10.0,29.65,WSW,242,0.0,0.0,2,0.00,,---,0.00,VWS V14.01,2013-05-31 00:12:00,
2013-05-30 17:17:00,89.1,-10.0,29.65,WSW,251,0.0,0.0,2,0.00,,---,0.00,VWS V14.01,2013-05-31 00:17:00,
2013-05-30 18:42:00,88.9,-10.1,29.65,West,269,0.0,0.0,2,0.00,,---,0.00,VWS V14.01,2013-05-31 01:42:00,
2013-05-30 18:48:00,86.4,-11.7,29.65,SSW,211,0.0,0.0,2,0.00,,---,0.00,VWS V14.01,2013-05-31 01:48:00,
2013-05-30 18:53:00,86.4,-11.7,29.65,WSW,238,0.0,0.0,2,0.00,,---,0.00,VWS V14.01,2013-05-31 01:53:00,
2013-05-30 18:58:00,85.5,-12.3,29.65,SSW,195,0.0,0.0,2,0.00,,---,0.00,VWS V14.01,2013-05-31 01:58:00,
2013-05-30 19:03:00,85.1,-12.5,29.65,SSW,195,0.0,0.0,2,0.00,,---,0.00,VWS V14.01,2013-05-31 02:03:00,
2013-05-30 19:08:00,84.6,-12.9,29.65,SW,218,0.0,0.0,2,0.00,,---,0.00,VWS V14.01,2013-05-31 02:08:00,
2013-05-30 19:13:00,84.4,-13.0,29.65,SW,227,0.0,0.0,2,0.00,,---,0.00,VWS V14.01,2013-05-31 02:13:00,
2013-05-30 19:18:00,84.4,-13.0,29.65,SW,231,0.0,0.0,2,0.00,,---,0.00,VWS V14.01,2013-05-31 02:18:00,
2013-05-30 19:23:00,84.4,-13.0,29.65,SW,227,0.0,0.0,2,0.00,,---,0.00,VWS V14.01,2013-05-31 02:23:00,
2013-05-30 19:28:00,83.3,-13.7,29.65,SW,227,0.0,0.0,2,0.00,,---,0.00,VWS V14.01,2013-05-31 02:28:00,
2013-05-30 19:33:00,83.1,-13.8,29.65,SW,218,0.0,0.0,2,0.00,,---,0.00,VWS V14.01,2013-05-31 02:33:00,
2013-05-30 19:38:00,82.9,-13.9,29.65,SW,226,0.0,0.0,2,0.00,,---,0.00,VWS V14.01,2013-05-31 02:38:00,
2013-05-30 22:11:00,82.9,-13.9,29.65,SW,226,0.0,0.0,2,0.00,,---,0.00,VWS V14.01,2013-05-31 05:11:00,
2013-05-30 22:12:00,78.4,-8.7,29.71,SSE,166,0.0,0.0,3,0.00,,---,0.00,VWS V14.01,2013-05-31 05:12:00,
2013-05-30 22:13:00,78.4,-8.7,29.71,SSE,166,0.0,0.0,3,0.00,,---,0.00,VWS V14.01,2013-05-31 05:13:00,
2013-05-30 22:18:00,78.3,-8.8,29.71,WSW,250,5.8,5.8,3,0.00,,---,0.00,VWS V14.01,2013-05-31 05:18:00,
2013-05-30 22:23:00,78.3,-8.8,29.71,SE,144,0.0,0.0,3,0.00,,---,0.00,VWS V14.01,2013-05-31 05:23:00,
2013-05-30 22:28:00,78.6,-8.6,29.71,SW,232,5.4,5.4,3,0.00,,---,0.00,VWS V14.01,2013-05-31 05:28:00,
2013-05-30 22:33:00,78.6,-8.6,29.71,SSW,197,0.0,0.0,3,0.00,,---,0.00,VWS V14.01,2013-05-31 05:33:00,
2013-05-30 22:38:00,78.4,-8.7,29.71,SW,225,0.0,0.0,3,0.00,,---,0.00,VWS V14.01,2013-05-31 05:38:00,
2013-05-30 22:43:00,77.4,-9.4,29.71,SW,225,0.0,0.0,3,0.00,,---,0.00,VWS V14.01,2013-05-31 05:43:00,
2013-05-30 22:48:00,77.4,-9.4,29.71,SW,225,0.0,0.0,3,0.00,,---,0.00,VWS V14.01,2013-05-31 05:48:00,
2013-05-30 22:53:00,76.3,-10.2,29.71,SW,226,0.0,0.0,3,0.00,,---,0.00,VWS V14.01,2013-05-31 05:53:00,